sensor_id;sensor_type;location;lat;lon;timestamp;pressure;altitude;pressure_sealevel;temperature;humidity
76156;BME280;64906;51.290;7.348;2024-02-14T00:00:00;98649.19;;;12.53;48.75
76156;BME280;64906;51.290;7.348;2024-02-14T00:02:25;98636.50;;;12.54;48.53
76156;BME280;64906;51.290;7.348;2024-02-14T00:04:52;98638.13;;;12.55;48.71
76156;BME280;64906;51.290;7.348;2024-02-14T00:07:19;98632.94;;;12.53;48.78
76156;BME280;64906;51.290;7.348;2024-02-14T00:09:44;98625.41;;;12.55;48.52
76156;BME280;64906;51.290;7.348;2024-02-14T00:12:09;98633.28;;;12.57;48.42
76156;BME280;64906;51.290;7.348;2024-02-14T00:14:35;98642.47;;;12.56;48.67
76156;BME280;64906;51.290;7.348;2024-02-14T00:17:00;98632.22;;;12.58;48.32
76156;BME280;64906;51.290;7.348;2024-02-14T00:19:26;98634.34;;;12.56;48.54
76156;BME280;64906;51.290;7.348;2024-02-14T00:21:51;98618.66;;;12.58;48.45
76156;BME280;64906;51.290;7.348;2024-02-14T00:24:16;98615.13;;;12.57;48.43
76156;BME280;64906;51.290;7.348;2024-02-14T00:26:44;98624.91;;;12.58;48.65
76156;BME280;64906;51.290;7.348;2024-02-14T00:29:11;98623.84;;;12.59;48.43
76156;BME280;64906;51.290;7.348;2024-02-14T00:31:36;98631.13;;;12.59;48.47
76156;BME280;64906;51.290;7.348;2024-02-14T00:34:01;98621.47;;;12.63;48.46
76156;BME280;64906;51.290;7.348;2024-02-14T00:36:27;98638.22;;;12.60;48.32
76156;BME280;64906;51.290;7.348;2024-02-14T00:38:52;98641.50;;;12.62;48.81
76156;BME280;64906;51.290;7.348;2024-02-14T00:41:17;98629.84;;;12.61;48.25
76156;BME280;64906;51.290;7.348;2024-02-14T00:43:42;98628.22;;;12.60;48.35
76156;BME280;64906;51.290;7.348;2024-02-14T00:46:08;98641.50;;;12.62;48.70
76156;BME280;64906;51.290;7.348;2024-02-14T00:48:33;98631.72;;;12.61;48.45
76156;BME280;64906;51.290;7.348;2024-02-14T00:50:58;98622.78;;;12.60;48.21
76156;BME280;64906;51.290;7.348;2024-02-14T00:53:24;98624.44;;;12.61;48.25
76156;BME280;64906;51.290;7.348;2024-02-14T00:55:50;98619.00;;;12.61;48.26
76156;BME280;64906;51.290;7.348;2024-02-14T00:58:15;98619.25;;;12.60;48.55
76156;BME280;64906;51.290;7.348;2024-02-14T01:00:40;98621.97;;;12.60;48.49
76156;BME280;64906;51.290;7.348;2024-02-14T01:03:06;98619.00;;;12.61;48.28
76156;BME280;64906;51.290;7.348;2024-02-14T01:05:31;98624.19;;;12.63;48.39
76156;BME280;64906;51.290;7.348;2024-02-14T01:07:57;98622.31;;;12.63;48.11
76156;BME280;64906;51.290;7.348;2024-02-14T01:10:22;98620.09;;;12.60;48.41
76156;BME280;64906;51.290;7.348;2024-02-14T01:12:47;98620.31;;;12.59;48.30
76156;BME280;64906;51.290;7.348;2024-02-14T01:15:12;98625.50;;;12.60;48.43
76156;BME280;64906;51.290;7.348;2024-02-14T01:17:38;98620.31;;;12.59;48.57
76156;BME280;64906;51.290;7.348;2024-02-14T01:20:05;98625.56;;;12.65;48.19
76156;BME280;64906;51.290;7.348;2024-02-14T01:22:31;98619.34;;;12.65;48.28
76156;BME280;64906;51.290;7.348;2024-02-14T01:24:56;98620.13;;;12.65;48.25
76156;BME280;64906;51.290;7.348;2024-02-14T01:27:23;98618.25;;;12.66;48.34
76156;BME280;64906;51.290;7.348;2024-02-14T01:29:49;98598.63;;;12.59;48.44
76156;BME280;64906;51.290;7.348;2024-02-14T01:32:14;98603.25;;;12.58;48.47
76156;BME280;64906;51.290;7.348;2024-02-14T01:34:40;98594.06;;;12.59;48.40
76156;BME280;64906;51.290;7.348;2024-02-14T01:37:07;98594.56;;;12.56;48.34
76156;BME280;64906;51.290;7.348;2024-02-14T01:39:35;98594.88;;;12.60;48.37
76156;BME280;64906;51.290;7.348;2024-02-14T01:42:00;98588.97;;;12.63;48.07
76156;BME280;64906;51.290;7.348;2024-02-14T01:44:25;98593.91;;;12.66;48.08
76156;BME280;64906;51.290;7.348;2024-02-14T01:46:50;98587.34;;;12.62;48.36
76156;BME280;64906;51.290;7.348;2024-02-14T01:49:18;98581.94;;;12.62;48.41
76156;BME280;64906;51.290;7.348;2024-02-14T01:51:44;98574.84;;;12.61;48.23
76156;BME280;64906;51.290;7.348;2024-02-14T01:54:12;98570.28;;;12.61;48.24
76156;BME280;64906;51.290;7.348;2024-02-14T01:56:39;98585.09;;;12.59;48.44
76156;BME280;64906;51.290;7.348;2024-02-14T01:59:05;98592.19;;;12.60;48.29
76156;BME280;64906;51.290;7.348;2024-02-14T02:01:32;98591.34;;;12.59;48.57
76156;BME280;64906;51.290;7.348;2024-02-14T02:03:58;98589.47;;;12.60;48.49
76156;BME280;64906;51.290;7.348;2024-02-14T02:06:23;98581.59;;;12.58;48.50
76156;BME280;64906;51.290;7.348;2024-02-14T02:08:49;98588.63;;;12.59;48.32
76156;BME280;64906;51.290;7.348;2024-02-14T02:11:14;98587.00;;;12.58;48.28
76156;BME280;64906;51.290;7.348;2024-02-14T02:13:40;98582.97;;;12.61;48.11
76156;BME280;64906;51.290;7.348;2024-02-14T02:16:05;98586.75;;;12.60;48.27
76156;BME280;64906;51.290;7.348;2024-02-14T02:18:34;98576.97;;;12.59;48.28
76156;BME280;64906;51.290;7.348;2024-02-14T02:20:59;98587.34;;;12.62;48.29
76156;BME280;64906;51.290;7.348;2024-02-14T02:23:24;98573.22;;;12.60;48.20
76156;BME280;64906;51.290;7.348;2024-02-14T02:25:50;98567.22;;;12.58;48.29
76156;BME280;64906;51.290;7.348;2024-02-14T02:28:16;98567.81;;;12.60;48.33
76156;BME280;64906;51.290;7.348;2024-02-14T02:30:41;98588.63;;;12.59;48.28
76156;BME280;64906;51.290;7.348;2024-02-14T02:33:06;98583.72;;;12.56;48.34
76156;BME280;64906;51.290;7.348;2024-02-14T02:35:32;98575.84;;;12.55;48.39
76156;BME280;64906;51.290;7.348;2024-02-14T02:37:58;98575.03;;;12.54;48.37
76156;BME280;64906;51.290;7.348;2024-02-14T02:40:24;98580.53;;;12.59;48.24
76156;BME280;64906;51.290;7.348;2024-02-14T02:42:50;98579.69;;;12.59;48.28
76156;BME280;64906;51.290;7.348;2024-02-14T02:45:16;98581.84;;;12.57;48.28
76156;BME280;64906;51.290;7.348;2024-02-14T02:47:42;98586.69;;;12.55;48.47
76156;BME280;64906;51.290;7.348;2024-02-14T02:50:07;98581.25;;;12.55;48.31
76156;BME280;64906;51.290;7.348;2024-02-14T02:52:33;98580.19;;;12.56;48.40
76156;BME280;64906;51.290;7.348;2024-02-14T02:54:59;98589.38;;;12.55;48.33
76156;BME280;64906;51.290;7.348;2024-02-14T02:57:26;98585.50;;;12.51;48.51
76156;BME280;64906;51.290;7.348;2024-02-14T02:59:52;98587.50;;;12.55;48.34
76156;BME280;64906;51.290;7.348;2024-02-14T03:02:18;98583.97;;;12.55;48.35
76156;BME280;64906;51.290;7.348;2024-02-14T03:04:44;98586.69;;;12.55;48.32
76156;BME280;64906;51.290;7.348;2024-02-14T03:07:10;98585.06;;;12.54;48.44
76156;BME280;64906;51.290;7.348;2024-02-14T03:09:35;98597.75;;;12.53;48.56
76156;BME280;64906;51.290;7.348;2024-02-14T03:12:03;98593.97;;;12.54;48.34
76156;BME280;64906;51.290;7.348;2024-02-14T03:14:30;98593.72;;;12.56;48.29
76156;BME280;64906;51.290;7.348;2024-02-14T03:16:59;98583.72;;;12.56;48.32
76156;BME280;64906;51.290;7.348;2024-02-14T03:19:24;98593.22;;;12.59;48.45
76156;BME280;64906;51.290;7.348;2024-02-14T03:21:50;98590.75;;;12.57;48.23
76156;BME280;64906;51.290;7.348;2024-02-14T03:24:15;98597.00;;;12.58;48.22
76156;BME280;64906;51.290;7.348;2024-02-14T03:26:40;98580.78;;;12.58;48.35
76156;BME280;64906;51.290;7.348;2024-02-14T03:29:07;98594.56;;;12.56;48.26
76156;BME280;64906;51.290;7.348;2024-02-14T03:31:32;98580.44;;;12.54;48.13
76156;BME280;64906;51.290;7.348;2024-02-14T03:33:57;98585.06;;;12.54;48.29
76156;BME280;64906;51.290;7.348;2024-02-14T03:36:23;98580.78;;;12.58;48.32
76156;BME280;64906;51.290;7.348;2024-02-14T03:38:49;98581.84;;;12.57;48.23
76156;BME280;64906;51.290;7.348;2024-02-14T03:41:14;98578.06;;;12.58;48.28
76156;BME280;64906;51.290;7.348;2024-02-14T03:43:40;98576.69;;;12.55;48.36
76156;BME280;64906;51.290;7.348;2024-02-14T03:46:05;98577.22;;;12.57;48.05
76156;BME280;64906;51.290;7.348;2024-02-14T03:48:30;98574.28;;;12.59;48.24
76156;BME280;64906;51.290;7.348;2024-02-14T03:50:56;98575.34;;;12.58;48.08
76156;BME280;64906;51.290;7.348;2024-02-14T03:53:22;98572.72;;;12.63;48.12
76156;BME280;64906;51.290;7.348;2024-02-14T03:55:47;98578.72;;;12.65;47.97
76156;BME280;64906;51.290;7.348;2024-02-14T03:58:14;98581.34;;;12.60;48.10
76156;BME280;64906;51.290;7.348;2024-02-14T04:00:41;98572.41;;;12.59;48.22
76156;BME280;64906;51.290;7.348;2024-02-14T04:03:06;98580.19;;;12.56;48.21
76156;BME280;64906;51.290;7.348;2024-02-14T04:05:32;98588.72;;;12.64;47.98
76156;BME280;64906;51.290;7.348;2024-02-14T04:07:57;98583.31;;;12.64;48.11
76156;BME280;64906;51.290;7.348;2024-02-14T04:10:22;98578.16;;;12.63;48.16
76156;BME280;64906;51.290;7.348;2024-02-14T04:12:48;98592.75;;;12.62;48.09
76156;BME280;64906;51.290;7.348;2024-02-14T04:15:13;98588.97;;;12.63;48.00
76156;BME280;64906;51.290;7.348;2024-02-14T04:17:41;98582.72;;;12.62;48.06
76156;BME280;64906;51.290;7.348;2024-02-14T04:20:07;98588.16;;;12.62;48.16
76156;BME280;64906;51.290;7.348;2024-02-14T04:22:32;98578.41;;;12.61;47.98
76156;BME280;64906;51.290;7.348;2024-02-14T04:24:58;98585.44;;;12.62;48.10
76156;BME280;64906;51.290;7.348;2024-02-14T04:27:23;98596.50;;;12.61;48.00
76156;BME280;64906;51.290;7.348;2024-02-14T04:29:49;98590.06;;;12.62;48.10
76156;BME280;64906;51.290;7.348;2024-02-14T04:32:14;98584.13;;;12.65;48.02
76156;BME280;64906;51.290;7.348;2024-02-14T04:34:39;98591.09;;;12.61;48.10
76156;BME280;64906;51.290;7.348;2024-02-14T04:37:06;98607.69;;;12.64;48.05
76156;BME280;64906;51.290;7.348;2024-02-14T04:39:39;98608.50;;;12.65;48.04
76156;BME280;64906;51.290;7.348;2024-02-14T04:42:05;98612.75;;;12.61;48.22
76156;BME280;64906;51.290;7.348;2024-02-14T04:44:33;98615.22;;;12.62;48.18
76156;BME280;64906;51.290;7.348;2024-02-14T04:46:59;98613.09;;;12.64;48.14
76156;BME280;64906;51.290;7.348;2024-02-14T04:49:25;98604.16;;;12.64;47.98
76156;BME280;64906;51.290;7.348;2024-02-14T04:51:51;98611.72;;;12.62;48.05
76156;BME280;64906;51.290;7.348;2024-02-14T04:54:16;98613.94;;;12.65;47.90
76156;BME280;64906;51.290;7.348;2024-02-14T04:56:42;98599.56;;;12.64;47.95
76156;BME280;64906;51.290;7.348;2024-02-14T04:59:08;98604.72;;;12.66;48.08
76156;BME280;64906;51.290;7.348;2024-02-14T05:01:34;98607.44;;;12.66;47.96
76156;BME280;64906;51.290;7.348;2024-02-14T05:04:00;98610.63;;;12.63;48.08
76156;BME280;64906;51.290;7.348;2024-02-14T05:06:25;98617.69;;;12.64;47.96
76156;BME280;64906;51.290;7.348;2024-02-14T05:08:50;98607.44;;;12.66;47.88
76156;BME280;64906;51.290;7.348;2024-02-14T05:11:17;98608.75;;;12.63;47.93
76156;BME280;64906;51.290;7.348;2024-02-14T05:13:42;98613.34;;;12.63;47.85
76156;BME280;64906;51.290;7.348;2024-02-14T05:16:08;98608.75;;;12.63;47.95
76156;BME280;64906;51.290;7.348;2024-02-14T05:18:36;98613.34;;;12.63;47.91
76156;BME280;64906;51.290;7.348;2024-02-14T05:21:05;98601.44;;;12.64;48.04
76156;BME280;64906;51.290;7.348;2024-02-14T05:23:30;98615.56;;;12.66;47.99
76156;BME280;64906;51.290;7.348;2024-02-14T05:25:55;98626.13;;;12.67;47.88
76156;BME280;64906;51.290;7.348;2024-02-14T05:28:21;98628.06;;;12.67;48.02
76156;BME280;64906;51.290;7.348;2024-02-14T05:30:46;98625.34;;;12.67;47.94
76156;BME280;64906;51.290;7.348;2024-02-14T05:33:11;98629.69;;;12.68;47.97
76156;BME280;64906;51.290;7.348;2024-02-14T05:35:36;98628.84;;;12.67;47.94
76156;BME280;64906;51.290;7.348;2024-02-14T05:38:02;98633.47;;;12.67;48.10
76156;BME280;64906;51.290;7.348;2024-02-14T05:40:29;98634.25;;;12.67;48.00
76156;BME280;64906;51.290;7.348;2024-02-14T05:42:54;98632.38;;;12.68;47.88
76156;BME280;64906;51.290;7.348;2024-02-14T05:45:21;98639.69;;;12.67;47.80
76156;BME280;64906;51.290;7.348;2024-02-14T05:47:46;98639.44;;;12.69;48.03
76156;BME280;64906;51.290;7.348;2024-02-14T05:50:11;98643.81;;;12.70;47.83
76156;BME280;64906;51.290;7.348;2024-02-14T05:52:38;98635.34;;;12.66;47.95
76156;BME280;64906;51.290;7.348;2024-02-14T05:55:04;98647.81;;;12.67;47.89
76156;BME280;64906;51.290;7.348;2024-02-14T05:57:30;98651.84;;;12.65;47.88
76156;BME280;64906;51.290;7.348;2024-02-14T05:59:55;98652.97;;;12.69;47.99
76156;BME280;64906;51.290;7.348;2024-02-14T06:02:20;98660.06;;;12.70;47.79
76156;BME280;64906;51.290;7.348;2024-02-14T06:04:46;98657.91;;;12.72;47.81
76156;BME280;64906;51.290;7.348;2024-02-14T06:07:11;98655.44;;;12.70;47.71
76156;BME280;64906;51.290;7.348;2024-02-14T06:09:37;98654.88;;;12.68;47.87
76156;BME280;64906;51.290;7.348;2024-02-14T06:12:03;98663.56;;;12.70;47.87
76156;BME280;64906;51.290;7.348;2024-02-14T06:14:28;98660.31;;;12.68;47.40
76156;BME280;64906;51.290;7.348;2024-02-14T06:16:56;98656.44;;;12.64;47.98
76156;BME280;64906;51.290;7.348;2024-02-14T06:19:21;98656.75;;;12.68;47.77
76156;BME280;64906;51.290;7.348;2024-02-14T06:21:47;98664.63;;;12.69;47.94
76156;BME280;64906;51.290;7.348;2024-02-14T06:24:12;98669.47;;;12.67;47.85
76156;BME280;64906;51.290;7.348;2024-02-14T06:26:38;98668.88;;;12.65;47.95
76156;BME280;64906;51.290;7.348;2024-02-14T06:29:04;98666.19;;;12.65;47.97
76156;BME280;64906;51.290;7.348;2024-02-14T06:31:29;98659.47;;;12.68;47.90
76156;BME280;64906;51.290;7.348;2024-02-14T06:33:54;98665.97;;;12.67;47.96
76156;BME280;64906;51.290;7.348;2024-02-14T06:36:19;98664.88;;;12.68;47.97
76156;BME280;64906;51.290;7.348;2024-02-14T06:38:45;98677.00;;;12.65;47.91
76156;BME280;64906;51.290;7.348;2024-02-14T06:41:11;98681.63;;;12.65;47.82
76156;BME280;64906;51.290;7.348;2024-02-14T06:43:37;98675.88;;;12.61;47.98
76156;BME280;64906;51.290;7.348;2024-02-14T06:46:04;98688.00;;;12.59;48.00
76156;BME280;64906;51.290;7.348;2024-02-14T06:48:30;98687.63;;;12.67;47.88
76156;BME280;64906;51.290;7.348;2024-02-14T06:50:55;98693.03;;;12.67;47.97
76156;BME280;64906;51.290;7.348;2024-02-14T06:53:20;98691.97;;;12.68;47.86
76156;BME280;64906;51.290;7.348;2024-02-14T06:55:46;98687.78;;;12.60;47.98
76156;BME280;64906;51.290;7.348;2024-02-14T06:58:11;98694.00;;;12.61;48.12
76156;BME280;64906;51.290;7.348;2024-02-14T07:00:36;98698.91;;;12.64;48.06
76156;BME280;64906;51.290;7.348;2024-02-14T07:03:02;98695.97;;;12.65;47.85
76156;BME280;64906;51.290;7.348;2024-02-14T07:05:27;98700.81;;;12.63;48.00
76156;BME280;64906;51.290;7.348;2024-02-14T07:07:54;98698.91;;;12.64;48.02
76156;BME280;64906;51.290;7.348;2024-02-14T07:10:20;98700.81;;;12.63;47.94
76156;BME280;64906;51.290;7.348;2024-02-14T07:12:45;98700.59;;;12.65;47.95
76156;BME280;64906;51.290;7.348;2024-02-14T07:15:10;98715.16;;;12.64;47.91
76156;BME280;64906;51.290;7.348;2024-02-14T07:17:36;98719.03;;;12.68;47.76
76156;BME280;64906;51.290;7.348;2024-02-14T07:20:04;98720.13;;;12.67;47.93
76156;BME280;64906;51.290;7.348;2024-02-14T07:22:29;98714.72;;;12.67;47.91
76156;BME280;64906;51.290;7.348;2024-02-14T07:24:55;98724.72;;;12.66;47.89
76156;BME280;64906;51.290;7.348;2024-02-14T07:27:21;98723.13;;;12.70;47.73
76156;BME280;64906;51.290;7.348;2024-02-14T07:29:46;98719.13;;;12.73;47.57
76156;BME280;64906;51.290;7.348;2024-02-14T07:32:12;98721.13;;;12.77;47.56
76156;BME280;64906;51.290;7.348;2024-02-14T07:34:40;98719.00;;;12.79;47.63
76156;BME280;64906;51.290;7.348;2024-02-14T07:37:05;98727.03;;;12.74;47.64
76156;BME280;64906;51.290;7.348;2024-02-14T07:39:31;98729.06;;;12.67;47.85
76156;BME280;64906;51.290;7.348;2024-02-14T07:41:57;98731.25;;;12.70;47.73
76156;BME280;64906;51.290;7.348;2024-02-14T07:44:23;98724.56;;;12.73;47.67
76156;BME280;64906;51.290;7.348;2024-02-14T07:46:49;98729.38;;;12.71;47.85
76156;BME280;64906;51.290;7.348;2024-02-14T07:49:14;98740.22;;;12.71;47.79
76156;BME280;64906;51.290;7.348;2024-02-14T07:51:39;98730.81;;;12.73;47.81
76156;BME280;64906;51.290;7.348;2024-02-14T07:54:05;98734.06;;;12.75;47.71
76156;BME280;64906;51.290;7.348;2024-02-14T07:56:30;98731.13;;;12.77;47.48
76156;BME280;64906;51.290;7.348;2024-02-14T07:58:57;98738.53;;;12.81;47.53
76156;BME280;64906;51.290;7.348;2024-02-14T08:01:22;98736.63;;;12.82;47.52
76156;BME280;64906;51.290;7.348;2024-02-14T08:03:47;98738.88;;;12.85;47.54
76156;BME280;64906;51.290;7.348;2024-02-14T08:06:13;98740.75;;;12.84;47.37
76156;BME280;64906;51.290;7.348;2024-02-14T08:08:38;98737.22;;;12.84;47.54
76156;BME280;64906;51.290;7.348;2024-02-14T08:11:04;98738.88;;;12.85;47.52
76156;BME280;64906;51.290;7.348;2024-02-14T08:13:29;98746.75;;;12.86;47.50
76156;BME280;64906;51.290;7.348;2024-02-14T08:15:55;98744.59;;;12.88;47.36
76156;BME280;64906;51.290;7.348;2024-02-14T08:18:20;98737.28;;;12.89;47.39
76156;BME280;64906;51.290;7.348;2024-02-14T08:20:45;98740.59;;;12.91;47.32
76156;BME280;64906;51.290;7.348;2024-02-14T08:23:10;98738.72;;;12.91;47.14
76156;BME280;64906;51.290;7.348;2024-02-14T08:25:36;98746.84;;;12.91;47.27
76156;BME280;64906;51.290;7.348;2024-02-14T08:28:01;98746.25;;;12.89;47.44
76156;BME280;64906;51.290;7.348;2024-02-14T08:30:27;98753.31;;;12.90;47.27
76156;BME280;64906;51.290;7.348;2024-02-14T08:32:53;98750.34;;;12.92;47.27
76156;BME280;64906;51.290;7.348;2024-02-14T08:35:18;98748.81;;;12.96;47.15
76156;BME280;64906;51.290;7.348;2024-02-14T08:37:43;98746.44;;;12.99;47.05
76156;BME280;64906;51.290;7.348;2024-02-14T08:40:09;98742.31;;;12.97;47.06
76156;BME280;64906;51.290;7.348;2024-02-14T08:42:37;98757.19;;;12.94;47.27
76156;BME280;64906;51.290;7.348;2024-02-14T08:45:02;98752.56;;;12.95;47.14
76156;BME280;64906;51.290;7.348;2024-02-14T08:47:28;98750.69;;;12.95;47.29
76156;BME280;64906;51.290;7.348;2024-02-14T08:49:54;98756.94;;;12.96;47.09
76156;BME280;64906;51.290;7.348;2024-02-14T08:52:20;98751.41;;;13.02;47.00
76156;BME280;64906;51.290;7.348;2024-02-14T08:54:46;98750.66;;;13.07;46.83
76156;BME280;64906;51.290;7.348;2024-02-14T08:57:11;98757.41;;;13.04;46.99
76156;BME280;64906;51.290;7.348;2024-02-14T08:59:36;98755.34;;;13.11;46.87
76156;BME280;64906;51.290;7.348;2024-02-14T09:02:02;98764.78;;;13.09;46.72
76156;BME280;64906;51.290;7.348;2024-02-14T09:04:27;98765.91;;;13.13;46.87
76156;BME280;64906;51.290;7.348;2024-02-14T09:06:53;98769.22;;;13.15;46.65
76156;BME280;64906;51.290;7.348;2024-02-14T09:09:18;98767.34;;;13.15;46.82
76156;BME280;64906;51.290;7.348;2024-02-14T09:11:44;98766.75;;;13.13;46.74
76156;BME280;64906;51.290;7.348;2024-02-14T09:14:11;98770.03;;;13.15;46.82
76156;BME280;64906;51.290;7.348;2024-02-14T09:16:37;98773.56;;;13.16;46.72
76156;BME280;64906;51.290;7.348;2024-02-14T09:19:02;98774.16;;;13.18;46.58
76156;BME280;64906;51.290;7.348;2024-02-14T09:21:28;98775.81;;;13.19;46.51
76156;BME280;64906;51.290;7.348;2024-02-14T09:23:54;98771.44;;;13.18;46.76
76156;BME280;64906;51.290;7.348;2024-02-14T09:26:20;98771.69;;;13.16;46.70
76156;BME280;64906;51.290;7.348;2024-02-14T09:28:45;98777.19;;;13.21;46.55
76156;BME280;64906;51.290;7.348;2024-02-14T09:31:10;98780.47;;;13.23;46.55
76156;BME280;64906;51.290;7.348;2024-02-14T09:33:38;98781.06;;;13.25;46.46
76156;BME280;64906;51.290;7.348;2024-02-14T09:36:04;98779.00;;;13.32;46.30
76156;BME280;64906;51.290;7.348;2024-02-14T09:38:30;98782.78;;;13.31;46.36
76156;BME280;64906;51.290;7.348;2024-02-14T09:41:15;98774.41;;;13.33;46.13
76156;BME280;64906;51.290;7.348;2024-02-14T09:43:44;98777.19;;;13.38;46.01
76156;BME280;64906;51.290;7.348;2024-02-14T09:46:14;98780.81;;;13.43;45.94
76156;BME280;64906;51.290;7.348;2024-02-14T09:48:44;98774.66;;;13.48;45.91
76156;BME280;64906;51.290;7.348;2024-02-14T09:51:10;98771.59;;;13.44;46.03
76156;BME280;64906;51.290;7.348;2024-02-14T09:53:36;98771.13;;;13.47;46.00
76156;BME280;64906;51.290;7.348;2024-02-14T09:56:02;98783.38;;;13.50;45.90
76156;BME280;64906;51.290;7.348;2024-02-14T09:58:27;98768.22;;;13.54;45.82
76156;BME280;64906;51.290;7.348;2024-02-14T10:00:53;98776.38;;;13.54;45.74
76156;BME280;64906;51.290;7.348;2024-02-14T10:03:18;98780.16;;;13.53;45.86
76156;BME280;64906;51.290;7.348;2024-02-14T10:05:44;98775.78;;;13.52;45.82
76156;BME280;64906;51.290;7.348;2024-02-14T10:08:10;98793.63;;;13.48;45.92
76156;BME280;64906;51.290;7.348;2024-02-14T10:10:37;98788.88;;;13.38;46.19
76156;BME280;64906;51.290;7.348;2024-02-14T10:13:06;98793.81;;;13.41;46.01
76156;BME280;64906;51.290;7.348;2024-02-14T10:15:32;98796.25;;;13.43;46.03
76156;BME280;64906;51.290;7.348;2024-02-14T10:17:58;98805.94;;;13.56;45.82
76156;BME280;64906;51.290;7.348;2024-02-14T10:20:24;98778.66;;;13.62;45.83
76156;BME280;64906;51.290;7.348;2024-02-14T10:22:51;98798.16;;;13.59;45.66
76156;BME280;64906;51.290;7.348;2024-02-14T10:25:17;98798.16;;;13.59;45.84
76156;BME280;64906;51.290;7.348;2024-02-14T10:27:44;98786.28;;;13.65;45.56
76156;BME280;64906;51.290;7.348;2024-02-14T10:30:11;98788.78;;;13.67;45.44
76156;BME280;64906;51.290;7.348;2024-02-14T10:32:39;98796.84;;;13.62;45.58
76156;BME280;64906;51.290;7.348;2024-02-14T10:35:08;98796.09;;;13.66;45.54
76156;BME280;64906;51.290;7.348;2024-02-14T10:37:34;98796.41;;;13.70;45.55
76156;BME280;64906;51.290;7.348;2024-02-14T10:40:01;98817.28;;;13.69;45.42
76156;BME280;64906;51.290;7.348;2024-02-14T10:42:28;98801.84;;;13.70;45.44
76156;BME280;64906;51.290;7.348;2024-02-14T10:44:54;98807.59;;;13.73;45.30
76156;BME280;64906;51.290;7.348;2024-02-14T10:47:20;98805.78;;;13.79;45.19
76156;BME280;64906;51.290;7.348;2024-02-14T10:49:49;98808.81;;;13.82;45.19
76156;BME280;64906;51.290;7.348;2024-02-14T10:52:17;98817.53;;;13.84;45.26
76156;BME280;64906;51.290;7.348;2024-02-14T10:54:50;98816.38;;;13.80;45.34
76156;BME280;64906;51.290;7.348;2024-02-14T10:57:18;98791.16;;;13.80;45.17
76156;BME280;64906;51.290;7.348;2024-02-14T10:59:46;98798.03;;;13.87;45.18
76156;BME280;64906;51.290;7.348;2024-02-14T11:02:12;98800.25;;;13.90;45.01
76156;BME280;64906;51.290;7.348;2024-02-14T11:04:37;98799.16;;;13.91;44.96
76156;BME280;64906;51.290;7.348;2024-02-14T11:07:09;98793.75;;;13.91;44.98
76156;BME280;64906;51.290;7.348;2024-02-14T11:09:37;98790.47;;;13.89;45.07
76156;BME280;64906;51.290;7.348;2024-02-14T11:12:07;98794.81;;;13.90;45.15
76156;BME280;64906;51.290;7.348;2024-02-14T11:14:34;98790.22;;;13.91;45.00
76156;BME280;64906;51.290;7.348;2024-02-14T11:17:03;98797.84;;;13.94;44.97
76156;BME280;64906;51.290;7.348;2024-02-14T11:19:32;98796.44;;;13.91;45.19
76156;BME280;64906;51.290;7.348;2024-02-14T11:22:10;98787.00;;;13.94;44.89
76156;BME280;64906;51.290;7.348;2024-02-14T11:24:36;98793.75;;;13.91;44.89
76156;BME280;64906;51.290;7.348;2024-02-14T11:27:02;98802.13;;;13.90;45.07
76156;BME280;64906;51.290;7.348;2024-02-14T11:29:31;98803.03;;;13.95;45.05
76156;BME280;64906;51.290;7.348;2024-02-14T11:32:00;98807.72;;;14.00;44.86
76156;BME280;64906;51.290;7.348;2024-02-14T11:34:27;98795.22;;;13.99;44.80
76156;BME280;64906;51.290;7.348;2024-02-14T11:36:53;98803.44;;;14.04;44.80
76156;BME280;64906;51.290;7.348;2024-02-14T11:39:20;98800.16;;;14.02;44.87
76156;BME280;64906;51.290;7.348;2024-02-14T11:41:45;98798.84;;;14.04;44.79
76156;BME280;64906;51.290;7.348;2024-02-14T11:44:10;98806.06;;;13.99;44.89
76156;BME280;64906;51.290;7.348;2024-02-14T11:46:37;98807.97;;;13.98;44.75
76156;BME280;64906;51.290;7.348;2024-02-14T11:49:04;98806.25;;;13.92;45.03
76156;BME280;64906;51.290;7.348;2024-02-14T11:51:30;98796.06;;;13.83;45.38
76156;BME280;64906;51.290;7.348;2024-02-14T11:53:57;98804.22;;;13.83;45.35
76156;BME280;64906;51.290;7.348;2024-02-14T11:56:30;98798.47;;;13.79;45.44
76156;BME280;64906;51.290;7.348;2024-02-14T11:58:59;98797.38;;;13.80;45.32
76156;BME280;64906;51.290;7.348;2024-02-14T12:01:25;98803.38;;;13.82;45.17
76156;BME280;64906;51.290;7.348;2024-02-14T12:03:51;98803.38;;;13.82;45.27
76156;BME280;64906;51.290;7.348;2024-02-14T12:06:17;98799.28;;;13.80;45.37
76156;BME280;64906;51.290;7.348;2024-02-14T12:08:42;98802.22;;;13.78;45.49
76156;BME280;64906;51.290;7.348;2024-02-14T12:11:08;98807.44;;;13.80;45.46
76156;BME280;64906;51.290;7.348;2024-02-14T12:13:33;98796.25;;;13.76;45.43
76156;BME280;64906;51.290;7.348;2024-02-14T12:16:03;98797.31;;;13.75;45.42
76156;BME280;64906;51.290;7.348;2024-02-14T12:18:28;98789.25;;;13.80;45.41
76156;BME280;64906;51.290;7.348;2024-02-14T12:21:03;98788.50;;;13.85;45.18
76156;BME280;64906;51.290;7.348;2024-02-14T12:23:28;98788.00;;;13.88;45.16
76156;BME280;64906;51.290;7.348;2024-02-14T12:26:01;98790.47;;;13.89;45.24
76156;BME280;64906;51.290;7.348;2024-02-14T12:28:29;98789.91;;;13.87;45.25
76156;BME280;64906;51.290;7.348;2024-02-14T12:30:55;98789.31;;;13.85;45.34
76156;BME280;64906;51.290;7.348;2024-02-14T12:33:26;98792.28;;;13.84;45.39
76156;BME280;64906;51.290;7.348;2024-02-14T12:35:56;98786.03;;;13.83;45.10
76156;BME280;64906;51.290;7.348;2024-02-14T12:38:23;98784.66;;;13.81;45.27
76156;BME280;64906;51.290;7.348;2024-02-14T12:40:49;98788.50;;;13.85;45.20
76156;BME280;64906;51.290;7.348;2024-02-14T12:43:15;98783.47;;;13.93;45.03
76156;BME280;64906;51.290;7.348;2024-02-14T12:45:44;98780.31;;;14.01;45.03
76156;BME280;64906;51.290;7.348;2024-02-14T12:48:11;98784.84;;;14.12;44.59
76156;BME280;64906;51.290;7.348;2024-02-14T12:50:40;98773.16;;;14.12;44.67
76156;BME280;64906;51.290;7.348;2024-02-14T12:53:12;98776.44;;;14.14;44.63